createdAt,value
2018-03-16T00:00:08.231Z,78.80
2018-03-16T00:02:35.832Z,79.00
2018-03-16T00:05:03.334Z,79.00
2018-03-16T00:07:30.876Z,79.20
2018-03-16T00:09:58.451Z,79.20
2018-03-16T00:12:26.011Z,78.70
2018-03-16T00:14:53.547Z,78.90
2018-03-16T00:17:21.077Z,78.80
2018-03-16T00:19:48.657Z,78.80
2018-03-16T00:22:17.834Z,78.90
2018-03-16T00:24:45.450Z,78.80
2018-03-16T00:27:13.030Z,79.20
2018-03-16T00:29:40.611Z,79.10
2018-03-16T00:32:09.671Z,78.90
2018-03-16T00:34:37.217Z,78.80
2018-03-16T00:37:04.882Z,78.90
2018-03-16T00:39:32.434Z,79.10
2018-03-16T00:42:00.814Z,79.50
2018-03-16T00:44:28.351Z,79.50
2018-03-16T00:46:55.869Z,79.20
2018-03-16T00:49:23.471Z,79.30
2018-03-16T00:51:51.768Z,79.40
2018-03-16T00:54:19.299Z,79.20
2018-03-16T00:56:47.603Z,79.90
2018-03-16T00:59:15.134Z,79.90
2018-03-16T01:01:42.678Z,79.60
2018-03-16T01:04:10.386Z,80.40
2018-03-16T01:06:37.916Z,79.80
2018-03-16T01:09:06.231Z,79.90
2018-03-16T01:11:33.821Z,79.80
2018-03-16T01:14:01.372Z,79.60
2018-03-16T01:16:28.900Z,79.70
2018-03-16T01:18:56.449Z,79.80
2018-03-16T01:21:24.834Z,79.80
2018-03-16T01:23:52.364Z,79.80
2018-03-16T01:26:19.884Z,79.80
2018-03-16T01:28:47.414Z,79.70
2018-03-16T01:31:14.977Z,80.00
2018-03-16T01:33:42.559Z,80.20
2018-03-16T01:36:10.201Z,80.00
2018-03-16T01:38:37.870Z,80.20
2018-03-16T01:41:05.387Z,80.20
2018-03-16T01:43:33.662Z,80.10
2018-03-16T01:46:01.958Z,81.00
2018-03-16T01:48:30.344Z,80.40
2018-03-16T01:50:57.895Z,80.40
2018-03-16T01:53:26.183Z,81.50
2018-03-16T01:55:53.698Z,80.70
2018-03-16T01:58:21.982Z,80.40
2018-03-16T02:00:49.501Z,80.50
2018-03-16T02:03:17.025Z,80.50
2018-03-16T02:05:44.547Z,80.30
2018-03-16T02:08:12.143Z,81.00
2018-03-16T02:10:39.768Z,80.40
2018-03-16T02:13:07.360Z,80.60
2018-03-16T02:15:35.024Z,80.70
2018-03-16T02:18:02.582Z,80.70
2018-03-16T02:20:30.876Z,80.60
2018-03-16T02:22:58.455Z,80.60
2018-03-16T02:25:25.981Z,80.40
2018-03-16T02:27:53.617Z,80.50
2018-03-16T02:30:21.988Z,80.60
2018-03-16T02:32:50.359Z,80.80
2018-03-16T02:35:17.931Z,80.80
2018-03-16T02:37:45.477Z,80.30
2018-03-16T02:40:13.010Z,80.70
2018-03-16T02:42:40.577Z,81.00
2018-03-16T02:45:08.103Z,80.70
2018-03-16T02:47:35.649Z,80.90
2018-03-16T02:50:03.180Z,80.70
2018-03-16T02:52:31.616Z,80.50
2018-03-16T02:54:59.128Z,80.50
2018-03-16T02:57:27.462Z,80.40
2018-03-16T02:59:54.984Z,80.40
2018-03-16T03:02:22.534Z,80.80
2018-03-16T03:04:50.069Z,80.90
2018-03-16T03:07:18.380Z,80.80
2018-03-16T03:09:45.915Z,80.90
2018-03-16T03:12:14.365Z,80.60
2018-03-16T03:14:41.903Z,80.50
2018-03-16T03:17:09.449Z,80.50
2018-03-16T03:19:36.975Z,80.50
2018-03-16T03:22:05.494Z,80.90
2018-03-16T03:24:33.007Z,80.80
2018-03-16T03:27:00.693Z,80.80
2018-03-16T03:29:28.230Z,80.70
2018-03-16T03:31:56.529Z,80.80
2018-03-16T03:34:24.074Z,80.70
2018-03-16T03:36:51.598Z,80.30
2018-03-16T03:39:19.224Z,80.50
2018-03-16T03:41:46.770Z,80.50
2018-03-16T03:44:14.298Z,80.60
2018-03-16T03:46:41.868Z,80.50
2018-03-16T03:49:10.186Z,81.40
2018-03-16T03:51:37.736Z,80.60
2018-03-16T03:54:05.334Z,80.80
2018-03-16T03:56:34.379Z,80.40
2018-03-16T03:59:01.918Z,81.10
2018-03-16T04:01:29.581Z,80.60
2018-03-16T04:03:57.109Z,80.60
2018-03-16T04:06:24.786Z,80.40
2018-03-16T04:08:53.185Z,80.30
2018-03-16T04:11:20.846Z,80.50
2018-03-16T04:13:48.627Z,80.60
2018-03-16T04:16:16.173Z,80.30
2018-03-16T04:18:43.834Z,80.80
2018-03-16T04:21:11.374Z,80.60
2018-03-16T04:23:39.667Z,80.50
2018-03-16T04:26:07.194Z,80.40
2018-03-16T04:28:36.224Z,80.60
2018-03-16T04:31:03.780Z,80.60
2018-03-16T04:33:31.289Z,80.40
2018-03-16T04:35:58.815Z,80.80
2018-03-16T04:38:26.343Z,80.50
2018-03-16T04:40:53.867Z,80.60
2018-03-16T04:43:21.392Z,80.30
2018-03-16T04:45:49.001Z,80.60
2018-03-16T04:48:17.402Z,80.80
2018-03-16T04:50:44.935Z,81.30
2018-03-16T04:53:12.498Z,80.80
2018-03-16T04:55:40.803Z,80.30
2018-03-16T04:58:08.325Z,80.30
2018-03-16T05:00:35.851Z,80.50
2018-03-16T05:03:03.384Z,80.40
2018-03-16T05:05:30.903Z,80.60
2018-03-16T05:07:58.523Z,80.60
2018-03-16T05:10:26.055Z,80.60
2018-03-16T05:12:53.679Z,80.70
2018-03-16T05:15:21.196Z,80.30
2018-03-16T05:17:48.854Z,80.40
2018-03-16T05:20:16.390Z,80.20
2018-03-16T05:22:43.913Z,80.10
2018-03-16T05:25:11.472Z,80.30
2018-03-16T05:27:39.012Z,80.10
2018-03-16T05:30:06.519Z,80.30
2018-03-16T05:32:34.902Z,80.60
2018-03-16T05:35:03.194Z,80.00
2018-03-16T05:37:30.740Z,80.00
2018-03-16T05:39:58.339Z,80.30
2018-03-16T05:42:25.976Z,80.00
2018-03-16T05:44:53.506Z,80.30
2018-03-16T05:47:21.035Z,79.70
2018-03-16T05:49:49.361Z,79.70
2018-03-16T05:52:16.895Z,79.80
2018-03-16T05:54:45.183Z,79.50
2018-03-16T05:57:13.522Z,79.30
2018-03-16T05:59:41.901Z,79.20
2018-03-16T06:02:09.437Z,79.30
2018-03-16T06:04:36.978Z,79.60
2018-03-16T06:07:04.679Z,79.50
2018-03-16T06:09:32.204Z,79.50
2018-03-16T06:11:59.796Z,79.60
2018-03-16T06:14:27.332Z,79.10
2018-03-16T06:16:54.962Z,80.20
2018-03-16T06:19:22.651Z,79.10
2018-03-16T06:21:50.217Z,79.20
2018-03-16T06:24:17.772Z,79.20
2018-03-16T06:26:45.302Z,78.90
2018-03-16T06:29:12.973Z,79.00
2018-03-16T06:31:40.499Z,78.90
2018-03-16T06:34:08.796Z,78.60
2018-03-16T06:36:36.354Z,78.50
2018-03-16T06:39:03.877Z,78.60
2018-03-16T06:41:31.435Z,78.90
2018-03-16T06:43:59.832Z,78.50
2018-03-16T06:46:28.114Z,78.30
2018-03-16T06:48:56.568Z,78.40
2018-03-16T06:51:24.184Z,78.30
2018-03-16T06:53:52.559Z,78.50
2018-03-16T06:56:20.117Z,78.40
2018-03-16T06:58:47.765Z,77.90
2018-03-16T07:01:15.416Z,77.70
2018-03-16T07:03:42.987Z,77.80
2018-03-16T07:06:10.544Z,77.70
2018-03-16T07:08:38.209Z,77.40
2018-03-16T07:11:05.739Z,77.50
2018-03-16T07:13:34.050Z,77.60
2018-03-16T07:16:01.568Z,77.30
2018-03-16T07:18:30.599Z,76.80
2018-03-16T07:20:58.128Z,76.80
2018-03-16T07:23:25.663Z,76.50
2018-03-16T07:25:53.311Z,76.70
2018-03-16T07:28:20.988Z,76.50
2018-03-16T07:30:48.729Z,76.50
2018-03-16T07:33:17.076Z,76.50
2018-03-16T07:35:44.610Z,76.50
2018-03-16T07:38:13.067Z,76.70
2018-03-16T07:40:40.651Z,76.70
2018-03-16T07:43:08.227Z,76.10
2018-03-16T07:45:41.362Z,76.20
2018-03-16T07:48:08.919Z,76.40
2018-03-16T07:50:36.483Z,76.70
2018-03-16T07:53:04.101Z,76.10
2018-03-16T07:55:31.777Z,75.90
2018-03-16T07:57:59.298Z,76.20
2018-03-16T08:00:27.591Z,76.50
2018-03-16T08:02:55.169Z,76.40
2018-03-16T08:05:22.686Z,75.90
2018-03-16T08:07:50.985Z,76.20
2018-03-16T08:10:18.602Z,76.20
2018-03-16T08:12:46.130Z,76.30
2018-03-16T08:15:13.804Z,76.40
2018-03-16T08:17:41.378Z,76.30
2018-03-16T08:20:09.032Z,76.50
2018-03-16T08:22:36.639Z,76.00
2018-03-16T08:25:04.169Z,76.00
2018-03-16T08:27:31.839Z,76.10
2018-03-16T08:29:59.357Z,76.00
2018-03-16T08:32:26.924Z,76.30
2018-03-16T08:34:54.538Z,76.30
2018-03-16T08:37:22.113Z,76.20
2018-03-16T08:39:49.673Z,76.40
2018-03-16T08:42:17.215Z,75.80
2018-03-16T08:44:45.521Z,76.50
2018-03-16T08:47:13.138Z,75.70
2018-03-16T08:49:41.438Z,75.70
2018-03-16T08:52:08.967Z,75.70
2018-03-16T08:54:37.476Z,75.80
2018-03-16T08:57:05.029Z,75.80
2018-03-16T08:59:32.552Z,75.90
2018-03-16T09:02:00.109Z,75.50
2018-03-16T09:04:27.635Z,75.30
2018-03-16T09:06:55.191Z,75.40
2018-03-16T09:09:22.734Z,75.40
2018-03-16T09:11:51.026Z,75.30
2018-03-16T09:14:18.592Z,75.20
2018-03-16T09:16:46.204Z,75.80
2018-03-16T09:19:13.741Z,75.60
2018-03-16T09:21:41.278Z,75.80
2018-03-16T09:24:08.800Z,75.70
2018-03-16T09:26:36.461Z,75.40
2018-03-16T09:29:03.997Z,74.80
2018-03-16T09:31:32.397Z,75.10
2018-03-16T09:33:59.979Z,75.10
2018-03-16T09:36:27.728Z,75.40
2018-03-16T09:38:55.261Z,75.10
2018-03-16T09:41:23.670Z,74.80
2018-03-16T09:43:51.202Z,74.70
2018-03-16T09:46:19.616Z,74.20
2018-03-16T09:48:47.140Z,74.20
2018-03-16T09:51:15.451Z,73.70
2018-03-16T09:53:42.990Z,73.70
2018-03-16T09:56:10.530Z,74.00
2018-03-16T09:58:38.895Z,73.50
2018-03-16T10:01:06.430Z,73.40
2018-03-16T10:03:34.102Z,74.10
2018-03-16T10:06:01.656Z,73.70
2018-03-16T10:08:29.983Z,73.40
2018-03-16T10:10:57.528Z,73.50
2018-03-16T10:13:25.845Z,74.30
2018-03-16T10:15:53.496Z,74.10
2018-03-16T10:18:21.004Z,73.50
2018-03-16T10:20:49.318Z,73.60
2018-03-16T10:23:16.843Z,73.60
2018-03-16T10:25:45.159Z,73.10
2018-03-16T10:28:12.726Z,73.10
2018-03-16T10:30:40.263Z,73.10
2018-03-16T10:33:07.787Z,73.10
2018-03-16T10:35:36.102Z,73.20
2018-03-16T10:38:03.762Z,73.10
2018-03-16T10:40:31.332Z,72.60
2018-03-16T10:42:59.009Z,72.90
2018-03-16T10:45:26.584Z,73.10
2018-03-16T10:47:54.092Z,73.20
2018-03-16T10:50:21.771Z,73.00
2018-03-16T10:52:49.392Z,73.50
2018-03-16T10:55:17.684Z,73.90
2018-03-16T10:57:45.210Z,73.90
2018-03-16T11:00:19.295Z,74.60
2018-03-16T11:02:51.869Z,73.90
2018-03-16T11:08:33.199Z,73.90
2018-03-16T11:11:00.717Z,73.90
2018-03-16T11:13:28.297Z,74.00
2018-03-16T11:15:55.805Z,74.20
2018-03-16T11:18:24.122Z,74.30
2018-03-16T11:20:51.640Z,74.20
2018-03-16T11:23:19.307Z,74.60
2018-03-16T11:25:46.862Z,74.60
2018-03-16T11:28:15.152Z,74.60
2018-03-16T11:30:42.667Z,74.60
2018-03-16T11:33:10.205Z,74.60
2018-03-16T11:35:37.735Z,74.70
2018-03-16T11:38:05.277Z,74.40
2018-03-16T11:40:32.823Z,74.40
2018-03-16T11:43:01.133Z,73.60
2018-03-16T11:45:28.648Z,73.60
2018-03-16T11:47:56.936Z,72.80
2018-03-16T11:50:24.453Z,72.80
2018-03-16T11:52:51.964Z,72.60
2018-03-16T11:55:19.478Z,72.00
2018-03-16T11:57:47.012Z,72.60
2018-03-16T12:00:14.528Z,72.50
2018-03-16T12:02:42.842Z,72.50
2018-03-16T12:05:10.424Z,72.40
2018-03-16T12:07:38.068Z,71.70
2018-03-16T12:10:05.781Z,71.20
2018-03-16T12:12:34.082Z,70.80
2018-03-16T12:15:01.654Z,70.70
2018-03-16T12:17:29.290Z,70.40
2018-03-16T12:19:56.807Z,70.10
2018-03-16T12:22:24.337Z,69.30
2018-03-16T12:24:51.936Z,69.30
2018-03-16T12:27:19.493Z,69.20
2018-03-16T12:29:48.531Z,69.10
2018-03-16T12:32:16.173Z,69.10
2018-03-16T12:34:44.568Z,69.10
2018-03-16T12:37:12.115Z,69.00
2018-03-16T12:39:40.520Z,68.80
2018-03-16T12:42:08.062Z,68.80
2018-03-16T12:44:35.824Z,69.20
2018-03-16T12:47:03.486Z,68.50
2018-03-16T12:49:31.006Z,68.80
2018-03-16T12:51:58.678Z,68.70
2018-03-16T12:54:26.203Z,69.30
2018-03-16T12:56:53.786Z,68.40
2018-03-16T12:59:21.319Z,67.70
2018-03-16T13:01:48.913Z,67.40
2018-03-16T13:04:16.475Z,66.70
2018-03-16T13:06:44.751Z,67.10
2018-03-16T13:09:12.457Z,67.10
2018-03-16T13:11:40.009Z,66.60
2018-03-16T13:14:07.546Z,66.30
2018-03-16T13:16:35.243Z,66.40
2018-03-16T13:19:02.779Z,66.20
2018-03-16T13:21:30.320Z,66.70
2018-03-16T13:23:57.848Z,66.40
2018-03-16T13:26:25.388Z,66.50
2018-03-16T13:28:52.991Z,65.60
2018-03-16T13:31:21.287Z,65.40
2018-03-16T13:33:48.942Z,65.40
2018-03-16T13:36:16.567Z,64.20
2018-03-16T13:38:44.101Z,64.00
2018-03-16T13:41:11.633Z,63.90
2018-03-16T13:43:39.175Z,64.20
2018-03-16T13:46:07.493Z,64.20
2018-03-16T13:48:35.825Z,64.50
2018-03-16T13:51:03.510Z,63.70
2018-03-16T13:53:31.055Z,63.70
2018-03-16T13:55:58.905Z,63.40
2018-03-16T13:58:27.206Z,63.90
2018-03-16T14:00:54.728Z,64.10
2018-03-16T14:03:22.249Z,63.90
2018-03-16T14:05:49.804Z,63.70
2018-03-16T14:08:17.372Z,65.20
2018-03-16T14:10:45.003Z,64.00
2018-03-16T14:13:12.512Z,64.50
2018-03-16T14:15:40.046Z,64.30
2018-03-16T14:18:07.610Z,64.30
2018-03-16T14:20:35.146Z,64.50
2018-03-16T14:23:02.739Z,65.00
2018-03-16T14:25:30.287Z,64.70
2018-03-16T14:27:57.859Z,65.20
2018-03-16T14:30:25.500Z,65.60
2018-03-16T14:32:53.011Z,65.40
2018-03-16T14:35:21.314Z,65.10
2018-03-16T14:37:48.931Z,65.00
2018-03-16T14:40:16.494Z,64.70
2018-03-16T14:42:45.612Z,64.60
2018-03-16T14:45:13.176Z,64.50
2018-03-16T14:47:41.553Z,65.20
2018-03-16T14:50:09.073Z,65.10
2018-03-16T14:52:36.617Z,64.70
2018-03-16T14:55:04.353Z,64.60
2018-03-16T14:57:31.996Z,64.20
2018-03-16T14:59:59.504Z,64.50
2018-03-16T15:02:27.168Z,64.00
2018-03-16T15:04:54.880Z,63.60
2018-03-16T15:07:22.542Z,63.00
2018-03-16T15:09:50.105Z,62.90
2018-03-16T15:12:17.684Z,62.50
2018-03-16T15:14:45.242Z,62.60
2018-03-16T15:17:12.785Z,61.80
2018-03-16T15:19:40.296Z,61.20
2018-03-16T15:22:07.826Z,61.20
2018-03-16T15:24:35.383Z,61.30
2018-03-16T15:27:02.916Z,61.30
2018-03-16T15:29:30.701Z,61.90
2018-03-16T15:31:58.264Z,61.90
2018-03-16T15:34:25.803Z,61.50
2018-03-16T15:36:53.375Z,61.30
2018-03-16T15:39:20.890Z,61.40
2018-03-16T15:41:48.548Z,61.30
2018-03-16T15:44:16.918Z,62.00
2018-03-16T15:46:44.456Z,61.90
2018-03-16T15:49:12.199Z,62.10
2018-03-16T15:51:39.774Z,61.10
2018-03-16T15:54:07.327Z,60.90
2018-03-16T15:56:34.908Z,60.90
2018-03-16T15:59:02.492Z,61.50
2018-03-16T16:01:30.830Z,60.90
2018-03-16T16:03:58.413Z,60.90
2018-03-16T16:06:25.973Z,59.90
2018-03-16T16:08:53.510Z,60.30
2018-03-16T16:11:21.044Z,60.00
2018-03-16T16:13:48.571Z,60.20
2018-03-16T16:16:16.124Z,60.40
2018-03-16T16:18:44.483Z,59.70
2018-03-16T16:21:12.039Z,59.60
2018-03-16T16:23:39.657Z,59.60
2018-03-16T16:26:07.179Z,59.40
2018-03-16T16:28:35.507Z,59.70
2018-03-16T16:31:03.060Z,59.70
2018-03-16T16:33:30.710Z,59.90
2018-03-16T16:35:58.242Z,60.00
2018-03-16T16:38:26.561Z,59.70
2018-03-16T16:40:54.204Z,59.70
2018-03-16T16:43:21.745Z,59.80
2018-03-16T16:45:49.305Z,60.50
2018-03-16T16:48:16.942Z,60.00
2018-03-16T16:50:45.248Z,59.30
2018-03-16T16:53:12.792Z,59.20
2018-03-16T16:55:40.334Z,59.70
2018-03-16T16:58:08.685Z,59.80
2018-03-16T17:00:36.431Z,59.80
2018-03-16T17:03:04.002Z,59.40
2018-03-16T17:05:31.577Z,59.40
2018-03-16T17:07:59.115Z,59.30
2018-03-16T17:10:26.674Z,59.20
2018-03-16T17:12:54.216Z,59.10
2018-03-16T17:15:21.762Z,59.20
2018-03-16T17:17:49.336Z,59.80
2018-03-16T17:20:17.102Z,60.40
2018-03-16T17:22:44.764Z,59.80
2018-03-16T17:25:12.318Z,59.70
2018-03-16T17:27:39.881Z,59.70
2018-03-16T17:30:07.419Z,59.90
2018-03-16T17:32:34.984Z,59.50
2018-03-16T17:35:02.526Z,60.00
2018-03-16T17:37:30.111Z,59.80
2018-03-16T17:39:57.635Z,59.80
2018-03-16T17:42:25.928Z,60.00
2018-03-16T17:44:53.715Z,59.90
2018-03-16T17:47:21.376Z,60.20
2018-03-16T17:49:48.997Z,60.20
2018-03-16T17:52:16.512Z,60.40
2018-03-16T17:54:44.063Z,60.00
2018-03-16T17:57:11.625Z,60.00
2018-03-16T17:59:39.253Z,60.90
2018-03-16T18:02:06.790Z,60.70
2018-03-16T18:04:35.132Z,60.80
2018-03-16T18:07:02.871Z,60.80
2018-03-16T18:09:30.425Z,60.80
2018-03-16T18:11:58.001Z,61.40
2018-03-16T18:14:25.559Z,61.40
2018-03-16T18:16:53.321Z,61.30
2018-03-16T18:19:20.871Z,60.70
2018-03-16T18:21:48.579Z,60.60
2018-03-16T18:24:16.905Z,61.10
2018-03-16T18:26:44.473Z,61.10
2018-03-16T18:29:12.034Z,61.30
2018-03-16T18:31:39.590Z,60.90
2018-03-16T18:34:07.269Z,61.50
2018-03-16T18:36:34.869Z,61.30
2018-03-16T18:39:03.196Z,61.00
2018-03-16T18:41:30.955Z,60.90
2018-03-16T18:43:58.546Z,61.20
2018-03-16T18:46:26.885Z,61.20
2018-03-16T18:48:54.426Z,61.20
2018-03-16T18:51:22.051Z,60.70
2018-03-16T18:53:49.628Z,59.30
2018-03-16T18:56:17.206Z,59.10
2018-03-16T18:58:44.759Z,59.10
2018-03-16T19:01:12.281Z,59.20
2018-03-16T19:03:39.871Z,59.30
2018-03-16T19:06:07.668Z,59.50
2018-03-16T19:08:35.291Z,59.70
2018-03-16T19:11:03.647Z,59.50
2018-03-16T19:13:32.015Z,58.50
2018-03-16T19:15:59.604Z,58.60
2018-03-16T19:18:27.177Z,58.60
2018-03-16T19:20:54.838Z,58.60
2018-03-16T19:23:22.413Z,58.80
2018-03-16T19:25:50.902Z,59.20
2018-03-16T19:28:18.543Z,59.30
2018-03-16T19:30:46.160Z,59.10
2018-03-16T19:33:13.678Z,59.10
2018-03-16T19:35:41.498Z,58.80
2018-03-16T19:38:09.747Z,58.50
2018-03-16T19:40:37.312Z,57.80
2018-03-16T19:43:05.884Z,57.80
2018-03-16T19:45:33.615Z,58.10
2018-03-16T19:48:02.044Z,58.20
2018-03-16T19:50:30.664Z,58.90
2018-03-16T19:52:58.549Z,59.00
2018-03-16T19:55:26.115Z,59.10
2018-03-16T19:57:53.757Z,59.00
2018-03-16T20:00:21.547Z,59.10
2018-03-16T20:02:49.163Z,59.20
2018-03-16T20:05:17.662Z,59.20
2018-03-16T20:07:46.266Z,59.20
2018-03-16T20:10:13.818Z,59.20
2018-03-16T20:12:41.367Z,59.20
2018-03-16T20:15:08.924Z,59.00
2018-03-16T20:17:36.488Z,58.80
2018-03-16T20:20:04.252Z,58.90
2018-03-16T20:22:31.842Z,58.10
2018-03-16T20:24:59.422Z,57.90
2018-03-16T20:27:28.505Z,57.10
2018-03-16T20:29:56.103Z,57.10
2018-03-16T20:32:24.455Z,57.70
2018-03-16T20:34:53.866Z,57.30
2018-03-16T20:37:21.445Z,57.30
2018-03-16T20:39:49.046Z,57.00
2018-03-16T20:42:16.745Z,57.20
2018-03-16T20:44:44.293Z,57.10
2018-03-16T20:47:12.426Z,57.30
2018-03-16T20:49:40.196Z,57.30
2018-03-16T20:52:07.773Z,56.90
2018-03-16T20:54:35.332Z,57.50
2018-03-16T20:57:03.262Z,57.80
2018-03-16T20:59:30.866Z,57.50
2018-03-16T21:01:58.435Z,57.20
2018-03-16T21:04:26.118Z,57.40
2018-03-16T21:06:54.238Z,57.20
2018-03-16T21:09:21.930Z,57.40
2018-03-16T21:11:50.637Z,57.50
2018-03-16T21:14:18.979Z,58.00
2018-03-16T21:16:46.750Z,57.90
2018-03-16T21:19:14.326Z,57.70
2018-03-16T21:21:41.910Z,58.00
2018-03-16T21:24:10.244Z,57.90
2018-03-16T21:26:37.987Z,57.90
2018-03-16T21:29:05.556Z,58.00
2018-03-16T21:31:33.340Z,57.40
2018-03-16T21:34:01.206Z,57.60
2018-03-16T21:36:29.322Z,57.90
2018-03-16T21:38:57.421Z,58.20
2018-03-16T21:41:25.927Z,58.20
2018-03-16T21:43:53.482Z,58.20
2018-03-16T21:46:21.087Z,58.40
2018-03-16T21:48:49.436Z,58.20
2018-03-16T21:51:17.027Z,58.20
2018-03-16T21:53:45.353Z,58.30
2018-03-16T21:56:12.922Z,58.30
2018-03-16T21:58:41.604Z,57.70
2018-03-16T22:01:09.167Z,57.70
2018-03-16T22:03:36.929Z,57.70
2018-03-16T22:06:04.677Z,57.90
2018-03-16T22:08:32.425Z,58.10
2018-03-16T22:10:59.979Z,57.90
2018-03-16T22:13:27.736Z,58.30
2018-03-16T22:15:55.278Z,57.90
2018-03-16T22:18:22.905Z,58.40
2018-03-16T22:20:50.516Z,58.30
2018-03-16T22:23:18.071Z,58.60
2018-03-16T22:25:46.054Z,58.10
2018-03-16T22:28:13.607Z,57.80
2018-03-16T22:30:41.177Z,57.80
2018-03-16T22:33:08.935Z,56.90
2018-03-16T22:35:36.567Z,57.00
2018-03-16T22:38:04.876Z,57.40
2018-03-16T22:40:32.474Z,57.90
2018-03-16T22:43:00.003Z,57.50
2018-03-16T22:45:27.790Z,57.00
2018-03-16T22:47:55.464Z,56.80
2018-03-16T22:50:23.796Z,56.20
2018-03-16T22:52:51.321Z,56.10
2018-03-16T22:55:18.859Z,55.60
2018-03-16T22:57:46.576Z,55.70
2018-03-16T23:00:21.530Z,55.50
2018-03-16T23:02:49.080Z,56.40
2018-03-16T23:05:16.613Z,55.80
2018-03-16T23:07:44.138Z,56.10
2018-03-16T23:10:11.676Z,55.90
2018-03-16T23:12:39.197Z,55.50
2018-03-16T23:15:06.864Z,55.30
2018-03-16T23:17:34.375Z,55.00
2018-03-16T23:20:02.186Z,55.10
2018-03-16T23:22:29.722Z,55.30
2018-03-16T23:24:57.271Z,55.30
2018-03-16T23:27:24.810Z,55.50
2018-03-16T23:29:52.398Z,55.50
2018-03-16T23:32:19.895Z,55.70
2018-03-16T23:34:47.423Z,55.80
2018-03-16T23:37:14.944Z,56.00
2018-03-16T23:39:42.844Z,55.50
2018-03-16T23:42:10.369Z,55.50
2018-03-16T23:44:37.882Z,55.30
2018-03-16T23:47:05.420Z,55.40
2018-03-16T23:49:33.079Z,55.10
2018-03-16T23:52:00.615Z,54.20
2018-03-16T23:54:28.929Z,54.80
2018-03-16T23:56:56.504Z,54.80
2018-03-16T23:59:24.037Z,54.90
